sensor_id;sensor_type;location;lat;lon;timestamp;P1;durP1;ratioP1;P2;durP2;ratioP2
11711;SDS011;5912;51.034;6.984;2024-01-15T00:02:02;20.20;;;12.77;;
11711;SDS011;5912;51.034;6.984;2024-01-15T00:04:28;18.93;;;11.77;;
11711;SDS011;5912;51.034;6.984;2024-01-15T00:06:53;22.40;;;12.27;;
11711;SDS011;5912;51.034;6.984;2024-01-15T00:09:19;22.03;;;12.37;;
11711;SDS011;5912;51.034;6.984;2024-01-15T00:11:44;20.97;;;12.87;;
11711;SDS011;5912;51.034;6.984;2024-01-15T00:14:09;24.93;;;12.40;;
11711;SDS011;5912;51.034;6.984;2024-01-15T00:16:35;24.23;;;12.70;;
11711;SDS011;5912;51.034;6.984;2024-01-15T00:19:00;22.40;;;13.47;;
11711;SDS011;5912;51.034;6.984;2024-01-15T00:21:25;25.70;;;13.97;;
11711;SDS011;5912;51.034;6.984;2024-01-15T00:23:50;26.03;;;13.97;;
11711;SDS011;5912;51.034;6.984;2024-01-15T00:26:16;26.73;;;13.77;;
11711;SDS011;5912;51.034;6.984;2024-01-15T00:28:41;23.80;;;13.30;;
11711;SDS011;5912;51.034;6.984;2024-01-15T00:31:06;25.27;;;13.47;;
11711;SDS011;5912;51.034;6.984;2024-01-15T00:33:32;22.53;;;12.87;;
11711;SDS011;5912;51.034;6.984;2024-01-15T00:35:57;24.17;;;13.40;;
11711;SDS011;5912;51.034;6.984;2024-01-15T00:38:23;25.37;;;13.27;;
11711;SDS011;5912;51.034;6.984;2024-01-15T00:40:48;24.27;;;13.40;;
11711;SDS011;5912;51.034;6.984;2024-01-15T00:43:13;27.37;;;13.83;;
11711;SDS011;5912;51.034;6.984;2024-01-15T00:45:39;25.73;;;13.77;;
11711;SDS011;5912;51.034;6.984;2024-01-15T00:48:05;25.70;;;14.23;;
11711;SDS011;5912;51.034;6.984;2024-01-15T00:50:30;28.53;;;14.77;;
11711;SDS011;5912;51.034;6.984;2024-01-15T00:52:56;27.57;;;14.20;;
11711;SDS011;5912;51.034;6.984;2024-01-15T00:55:21;26.20;;;14.07;;
11711;SDS011;5912;51.034;6.984;2024-01-15T00:57:46;28.13;;;14.53;;
11711;SDS011;5912;51.034;6.984;2024-01-15T01:00:11;27.27;;;14.80;;
11711;SDS011;5912;51.034;6.984;2024-01-15T01:02:37;28.30;;;14.53;;
11711;SDS011;5912;51.034;6.984;2024-01-15T01:05:03;27.50;;;13.60;;
11711;SDS011;5912;51.034;6.984;2024-01-15T01:07:28;25.73;;;14.23;;
11711;SDS011;5912;51.034;6.984;2024-01-15T01:09:54;23.90;;;14.20;;
11711;SDS011;5912;51.034;6.984;2024-01-15T01:12:20;27.47;;;14.87;;
11711;SDS011;5912;51.034;6.984;2024-01-15T01:14:45;25.50;;;13.93;;
11711;SDS011;5912;51.034;6.984;2024-01-15T01:17:10;23.73;;;13.87;;
11711;SDS011;5912;51.034;6.984;2024-01-15T01:19:36;26.07;;;14.50;;
11711;SDS011;5912;51.034;6.984;2024-01-15T01:22:01;26.33;;;14.13;;
11711;SDS011;5912;51.034;6.984;2024-01-15T01:24:26;27.23;;;13.80;;
11711;SDS011;5912;51.034;6.984;2024-01-15T01:26:52;22.93;;;13.33;;
11711;SDS011;5912;51.034;6.984;2024-01-15T01:29:17;25.33;;;12.93;;
11711;SDS011;5912;51.034;6.984;2024-01-15T01:31:45;25.17;;;13.20;;
11711;SDS011;5912;51.034;6.984;2024-01-15T01:34:14;25.00;;;12.73;;
11711;SDS011;5912;51.034;6.984;2024-01-15T01:36:41;21.33;;;12.17;;
11711;SDS011;5912;51.034;6.984;2024-01-15T01:39:07;23.90;;;13.27;;
11711;SDS011;5912;51.034;6.984;2024-01-15T01:41:32;25.23;;;12.33;;
11711;SDS011;5912;51.034;6.984;2024-01-15T01:43:58;22.57;;;12.83;;
11711;SDS011;5912;51.034;6.984;2024-01-15T01:46:23;24.33;;;12.87;;
11711;SDS011;5912;51.034;6.984;2024-01-15T01:48:51;20.73;;;12.43;;
11711;SDS011;5912;51.034;6.984;2024-01-15T01:51:17;24.27;;;13.40;;
11711;SDS011;5912;51.034;6.984;2024-01-15T01:53:43;23.40;;;13.43;;
11711;SDS011;5912;51.034;6.984;2024-01-15T01:56:10;26.17;;;13.30;;
11711;SDS011;5912;51.034;6.984;2024-01-15T01:58:36;28.33;;;14.87;;
11711;SDS011;5912;51.034;6.984;2024-01-15T02:01:02;22.80;;;12.77;;
11711;SDS011;5912;51.034;6.984;2024-01-15T02:03:27;24.57;;;13.70;;
11711;SDS011;5912;51.034;6.984;2024-01-15T02:05:53;20.87;;;12.60;;
11711;SDS011;5912;51.034;6.984;2024-01-15T02:08:18;26.87;;;13.57;;
11711;SDS011;5912;51.034;6.984;2024-01-15T02:10:44;28.10;;;14.50;;
11711;SDS011;5912;51.034;6.984;2024-01-15T02:13:09;23.27;;;12.33;;
11711;SDS011;5912;51.034;6.984;2024-01-15T02:15:35;24.43;;;12.67;;
11711;SDS011;5912;51.034;6.984;2024-01-15T02:18:01;22.53;;;12.70;;
11711;SDS011;5912;51.034;6.984;2024-01-15T02:20:32;26.33;;;13.60;;
11711;SDS011;5912;51.034;6.984;2024-01-15T02:26:20;24.43;;;13.03;;
11711;SDS011;5912;51.034;6.984;2024-01-15T02:28:46;22.73;;;12.10;;
11711;SDS011;5912;51.034;6.984;2024-01-15T02:31:12;24.63;;;13.60;;
11711;SDS011;5912;51.034;6.984;2024-01-15T02:33:37;22.80;;;11.90;;
11711;SDS011;5912;51.034;6.984;2024-01-15T02:36:03;22.17;;;12.90;;
11711;SDS011;5912;51.034;6.984;2024-01-15T02:38:28;26.93;;;12.97;;
11711;SDS011;5912;51.034;6.984;2024-01-15T02:40:54;20.50;;;11.70;;
11711;SDS011;5912;51.034;6.984;2024-01-15T02:43:19;21.77;;;12.00;;
11711;SDS011;5912;51.034;6.984;2024-01-15T02:45:45;19.73;;;12.13;;
11711;SDS011;5912;51.034;6.984;2024-01-15T02:48:11;23.33;;;13.57;;
11711;SDS011;5912;51.034;6.984;2024-01-15T02:50:36;22.73;;;12.93;;
11711;SDS011;5912;51.034;6.984;2024-01-15T02:53:02;22.03;;;13.33;;
11711;SDS011;5912;51.034;6.984;2024-01-15T02:55:27;23.17;;;12.97;;
11711;SDS011;5912;51.034;6.984;2024-01-15T02:57:54;24.43;;;12.87;;
11711;SDS011;5912;51.034;6.984;2024-01-15T03:00:19;21.30;;;11.80;;
11711;SDS011;5912;51.034;6.984;2024-01-15T03:02:45;21.67;;;11.90;;
11711;SDS011;5912;51.034;6.984;2024-01-15T03:05:11;23.33;;;12.23;;
11711;SDS011;5912;51.034;6.984;2024-01-15T03:07:36;23.27;;;11.70;;
11711;SDS011;5912;51.034;6.984;2024-01-15T03:10:02;19.40;;;11.53;;
11711;SDS011;5912;51.034;6.984;2024-01-15T03:12:27;20.87;;;11.77;;
11711;SDS011;5912;51.034;6.984;2024-01-15T03:14:53;20.17;;;11.30;;
11711;SDS011;5912;51.034;6.984;2024-01-15T03:17:18;18.33;;;11.07;;
11711;SDS011;5912;51.034;6.984;2024-01-15T03:19:43;16.27;;;10.30;;
11711;SDS011;5912;51.034;6.984;2024-01-15T03:22:09;17.60;;;10.80;;
11711;SDS011;5912;51.034;6.984;2024-01-15T03:24:34;17.03;;;10.13;;
11711;SDS011;5912;51.034;6.984;2024-01-15T03:27:00;15.83;;;10.23;;
11711;SDS011;5912;51.034;6.984;2024-01-15T03:29:26;17.60;;;10.53;;
11711;SDS011;5912;51.034;6.984;2024-01-15T03:31:51;16.30;;;9.53;;
11711;SDS011;5912;51.034;6.984;2024-01-15T03:34:17;17.60;;;9.77;;
11711;SDS011;5912;51.034;6.984;2024-01-15T03:36:42;17.97;;;9.53;;
11711;SDS011;5912;51.034;6.984;2024-01-15T03:39:08;19.10;;;10.07;;
11711;SDS011;5912;51.034;6.984;2024-01-15T03:44:19;16.30;;;9.37;;
11711;SDS011;5912;51.034;6.984;2024-01-15T03:46:44;16.70;;;10.20;;
11711;SDS011;5912;51.034;6.984;2024-01-15T03:49:09;15.97;;;9.93;;
11711;SDS011;5912;51.034;6.984;2024-01-15T03:51:34;16.77;;;10.17;;
11711;SDS011;5912;51.034;6.984;2024-01-15T03:54:00;19.17;;;10.40;;
11711;SDS011;5912;51.034;6.984;2024-01-15T03:56:25;19.57;;;10.70;;
11711;SDS011;5912;51.034;6.984;2024-01-15T03:58:50;18.83;;;10.67;;
11711;SDS011;5912;51.034;6.984;2024-01-15T04:01:16;19.83;;;11.23;;
11711;SDS011;5912;51.034;6.984;2024-01-15T04:03:41;18.07;;;10.57;;
11711;SDS011;5912;51.034;6.984;2024-01-15T04:06:06;19.60;;;11.23;;
11711;SDS011;5912;51.034;6.984;2024-01-15T04:08:31;21.37;;;11.60;;
11711;SDS011;5912;51.034;6.984;2024-01-15T04:10:57;20.87;;;11.90;;
11711;SDS011;5912;51.034;6.984;2024-01-15T04:13:22;19.10;;;11.37;;
11711;SDS011;5912;51.034;6.984;2024-01-15T04:15:47;18.23;;;10.93;;
11711;SDS011;5912;51.034;6.984;2024-01-15T04:18:13;19.60;;;11.20;;
11711;SDS011;5912;51.034;6.984;2024-01-15T04:20:38;18.73;;;11.23;;
11711;SDS011;5912;51.034;6.984;2024-01-15T04:23:04;17.93;;;10.30;;
11711;SDS011;5912;51.034;6.984;2024-01-15T04:25:29;15.67;;;9.70;;
11711;SDS011;5912;51.034;6.984;2024-01-15T04:27:55;19.50;;;11.20;;
11711;SDS011;5912;51.034;6.984;2024-01-15T04:30:20;17.53;;;10.90;;
11711;SDS011;5912;51.034;6.984;2024-01-15T04:32:45;18.27;;;10.47;;
11711;SDS011;5912;51.034;6.984;2024-01-15T04:35:11;16.97;;;10.47;;
11711;SDS011;5912;51.034;6.984;2024-01-15T04:37:37;17.03;;;9.87;;
11711;SDS011;5912;51.034;6.984;2024-01-15T04:40:03;16.50;;;10.67;;
11711;SDS011;5912;51.034;6.984;2024-01-15T04:42:29;13.63;;;9.30;;
11711;SDS011;5912;51.034;6.984;2024-01-15T04:44:54;16.40;;;9.90;;
11711;SDS011;5912;51.034;6.984;2024-01-15T04:47:19;15.47;;;9.37;;
11711;SDS011;5912;51.034;6.984;2024-01-15T04:49:44;14.50;;;9.47;;
11711;SDS011;5912;51.034;6.984;2024-01-15T04:52:10;14.93;;;8.80;;
11711;SDS011;5912;51.034;6.984;2024-01-15T04:54:35;15.97;;;8.77;;
11711;SDS011;5912;51.034;6.984;2024-01-15T04:57:01;14.00;;;8.47;;
11711;SDS011;5912;51.034;6.984;2024-01-15T04:59:27;16.73;;;8.83;;
11711;SDS011;5912;51.034;6.984;2024-01-15T05:01:53;14.70;;;8.93;;
11711;SDS011;5912;51.034;6.984;2024-01-15T05:04:18;13.53;;;8.87;;
11711;SDS011;5912;51.034;6.984;2024-01-15T05:06:43;15.53;;;8.40;;
11711;SDS011;5912;51.034;6.984;2024-01-15T05:09:09;13.67;;;8.30;;
11711;SDS011;5912;51.034;6.984;2024-01-15T05:11:34;15.00;;;8.87;;
11711;SDS011;5912;51.034;6.984;2024-01-15T05:13:59;11.67;;;7.80;;
11711;SDS011;5912;51.034;6.984;2024-01-15T05:16:24;12.67;;;8.63;;
11711;SDS011;5912;51.034;6.984;2024-01-15T05:18:50;15.20;;;8.57;;
11711;SDS011;5912;51.034;6.984;2024-01-15T05:21:15;13.17;;;8.73;;
11711;SDS011;5912;51.034;6.984;2024-01-15T05:23:40;14.00;;;8.57;;
11711;SDS011;5912;51.034;6.984;2024-01-15T05:26:06;17.97;;;8.57;;
11711;SDS011;5912;51.034;6.984;2024-01-15T05:28:31;13.03;;;8.43;;
11711;SDS011;5912;51.034;6.984;2024-01-15T05:30:56;17.07;;;8.83;;
11711;SDS011;5912;51.034;6.984;2024-01-15T05:33:25;15.83;;;9.00;;
11711;SDS011;5912;51.034;6.984;2024-01-15T05:35:50;13.43;;;8.27;;
11711;SDS011;5912;51.034;6.984;2024-01-15T05:38:16;15.50;;;7.70;;
11711;SDS011;5912;51.034;6.984;2024-01-15T05:40:42;14.10;;;8.60;;
11711;SDS011;5912;51.034;6.984;2024-01-15T05:43:07;13.13;;;8.20;;
11711;SDS011;5912;51.034;6.984;2024-01-15T05:45:33;11.50;;;7.17;;
11711;SDS011;5912;51.034;6.984;2024-01-15T05:47:59;13.00;;;7.97;;
11711;SDS011;5912;51.034;6.984;2024-01-15T05:50:25;13.83;;;8.57;;
11711;SDS011;5912;51.034;6.984;2024-01-15T05:52:50;11.80;;;7.60;;
11711;SDS011;5912;51.034;6.984;2024-01-15T05:55:15;13.20;;;7.47;;
11711;SDS011;5912;51.034;6.984;2024-01-15T05:57:42;11.30;;;7.43;;
11711;SDS011;5912;51.034;6.984;2024-01-15T06:00:08;12.27;;;7.50;;
11711;SDS011;5912;51.034;6.984;2024-01-15T06:02:33;11.77;;;6.90;;
11711;SDS011;5912;51.034;6.984;2024-01-15T06:04:59;11.77;;;7.50;;
11711;SDS011;5912;51.034;6.984;2024-01-15T06:07:24;10.73;;;6.83;;
11711;SDS011;5912;51.034;6.984;2024-01-15T06:09:49;11.97;;;6.97;;
11711;SDS011;5912;51.034;6.984;2024-01-15T06:12:15;9.17;;;6.43;;
11711;SDS011;5912;51.034;6.984;2024-01-15T06:14:40;11.93;;;7.50;;
11711;SDS011;5912;51.034;6.984;2024-01-15T06:17:06;10.97;;;6.47;;
11711;SDS011;5912;51.034;6.984;2024-01-15T06:19:32;10.13;;;6.43;;
11711;SDS011;5912;51.034;6.984;2024-01-15T06:21:57;9.77;;;6.73;;
11711;SDS011;5912;51.034;6.984;2024-01-15T06:24:22;10.13;;;6.97;;
11711;SDS011;5912;51.034;6.984;2024-01-15T06:26:48;11.87;;;7.23;;
11711;SDS011;5912;51.034;6.984;2024-01-15T06:29:13;10.57;;;7.20;;
11711;SDS011;5912;51.034;6.984;2024-01-15T06:31:39;12.00;;;7.30;;
11711;SDS011;5912;51.034;6.984;2024-01-15T06:34:04;13.20;;;7.07;;
11711;SDS011;5912;51.034;6.984;2024-01-15T06:36:29;12.67;;;7.40;;
11711;SDS011;5912;51.034;6.984;2024-01-15T06:38:54;10.43;;;6.87;;
11711;SDS011;5912;51.034;6.984;2024-01-15T06:41:20;12.10;;;7.10;;
11711;SDS011;5912;51.034;6.984;2024-01-15T06:43:46;13.87;;;8.00;;
11711;SDS011;5912;51.034;6.984;2024-01-15T06:46:11;12.07;;;7.30;;
11711;SDS011;5912;51.034;6.984;2024-01-15T06:48:36;10.10;;;6.57;;
11711;SDS011;5912;51.034;6.984;2024-01-15T06:51:02;10.37;;;6.73;;
11711;SDS011;5912;51.034;6.984;2024-01-15T06:53:27;11.80;;;6.53;;
11711;SDS011;5912;51.034;6.984;2024-01-15T06:55:52;12.77;;;6.93;;
11711;SDS011;5912;51.034;6.984;2024-01-15T06:58:18;11.03;;;6.87;;
11711;SDS011;5912;51.034;6.984;2024-01-15T07:00:43;10.57;;;7.10;;
11711;SDS011;5912;51.034;6.984;2024-01-15T07:03:08;10.63;;;7.20;;
11711;SDS011;5912;51.034;6.984;2024-01-15T07:05:34;11.30;;;8.20;;
11711;SDS011;5912;51.034;6.984;2024-01-15T07:07:59;13.20;;;8.20;;
11711;SDS011;5912;51.034;6.984;2024-01-15T07:10:24;12.20;;;8.20;;
11711;SDS011;5912;51.034;6.984;2024-01-15T07:12:51;11.87;;;8.30;;
11711;SDS011;5912;51.034;6.984;2024-01-15T07:15:16;9.87;;;8.13;;
11711;SDS011;5912;51.034;6.984;2024-01-15T07:17:41;12.93;;;8.90;;
11711;SDS011;5912;51.034;6.984;2024-01-15T07:20:07;13.77;;;8.27;;
11711;SDS011;5912;51.034;6.984;2024-01-15T07:22:35;11.07;;;7.67;;
11711;SDS011;5912;51.034;6.984;2024-01-15T07:25:00;9.10;;;7.20;;
11711;SDS011;5912;51.034;6.984;2024-01-15T07:27:26;11.13;;;8.10;;
11711;SDS011;5912;51.034;6.984;2024-01-15T07:29:51;11.43;;;7.97;;
11711;SDS011;5912;51.034;6.984;2024-01-15T07:32:17;12.27;;;7.57;;
11711;SDS011;5912;51.034;6.984;2024-01-15T07:34:42;10.40;;;7.27;;
11711;SDS011;5912;51.034;6.984;2024-01-15T07:37:07;11.43;;;7.17;;
11711;SDS011;5912;51.034;6.984;2024-01-15T07:39:33;11.80;;;7.40;;
11711;SDS011;5912;51.034;6.984;2024-01-15T07:41:59;10.33;;;8.07;;
11711;SDS011;5912;51.034;6.984;2024-01-15T07:44:25;12.97;;;7.93;;
11711;SDS011;5912;51.034;6.984;2024-01-15T07:46:50;12.40;;;7.53;;
11711;SDS011;5912;51.034;6.984;2024-01-15T07:49:16;13.17;;;8.30;;
11711;SDS011;5912;51.034;6.984;2024-01-15T07:51:41;11.90;;;8.10;;
11711;SDS011;5912;51.034;6.984;2024-01-15T07:54:08;13.40;;;8.20;;
11711;SDS011;5912;51.034;6.984;2024-01-15T07:56:34;10.37;;;7.67;;
11711;SDS011;5912;51.034;6.984;2024-01-15T07:58:59;15.73;;;8.90;;
11711;SDS011;5912;51.034;6.984;2024-01-15T08:01:24;12.13;;;8.80;;
11711;SDS011;5912;51.034;6.984;2024-01-15T08:03:50;14.47;;;9.00;;
11711;SDS011;5912;51.034;6.984;2024-01-15T08:06:15;13.60;;;9.10;;
11711;SDS011;5912;51.034;6.984;2024-01-15T08:08:41;15.23;;;9.43;;
11711;SDS011;5912;51.034;6.984;2024-01-15T08:11:06;15.40;;;9.40;;
11711;SDS011;5912;51.034;6.984;2024-01-15T08:13:31;15.57;;;9.73;;
11711;SDS011;5912;51.034;6.984;2024-01-15T08:15:57;12.73;;;8.87;;
11711;SDS011;5912;51.034;6.984;2024-01-15T08:18:23;15.93;;;10.80;;
11711;SDS011;5912;51.034;6.984;2024-01-15T08:20:48;18.73;;;10.53;;
11711;SDS011;5912;51.034;6.984;2024-01-15T08:23:16;15.80;;;10.50;;
11711;SDS011;5912;51.034;6.984;2024-01-15T08:25:41;17.40;;;10.60;;
11711;SDS011;5912;51.034;6.984;2024-01-15T08:28:07;20.07;;;11.00;;
11711;SDS011;5912;51.034;6.984;2024-01-15T08:30:33;15.57;;;11.10;;
11711;SDS011;5912;51.034;6.984;2024-01-15T08:32:58;15.47;;;11.30;;
11711;SDS011;5912;51.034;6.984;2024-01-15T08:35:24;16.03;;;11.20;;
11711;SDS011;5912;51.034;6.984;2024-01-15T08:37:50;15.80;;;11.03;;
11711;SDS011;5912;51.034;6.984;2024-01-15T08:40:16;16.67;;;11.33;;
11711;SDS011;5912;51.034;6.984;2024-01-15T08:42:41;14.57;;;10.87;;
11711;SDS011;5912;51.034;6.984;2024-01-15T08:45:07;15.13;;;10.50;;
11711;SDS011;5912;51.034;6.984;2024-01-15T08:47:33;14.23;;;9.90;;
11711;SDS011;5912;51.034;6.984;2024-01-15T08:49:59;14.73;;;8.90;;
11711;SDS011;5912;51.034;6.984;2024-01-15T08:52:25;15.57;;;9.23;;
11711;SDS011;5912;51.034;6.984;2024-01-15T08:54:51;13.30;;;8.80;;
11711;SDS011;5912;51.034;6.984;2024-01-15T08:57:16;14.73;;;9.70;;
11711;SDS011;5912;51.034;6.984;2024-01-15T08:59:41;14.23;;;9.07;;
11711;SDS011;5912;51.034;6.984;2024-01-15T09:02:07;14.53;;;9.70;;
11711;SDS011;5912;51.034;6.984;2024-01-15T09:04:32;14.03;;;9.33;;
11711;SDS011;5912;51.034;6.984;2024-01-15T09:06:58;17.07;;;9.77;;
11711;SDS011;5912;51.034;6.984;2024-01-15T09:09:23;16.43;;;10.23;;
11711;SDS011;5912;51.034;6.984;2024-01-15T09:11:49;14.43;;;9.53;;
11711;SDS011;5912;51.034;6.984;2024-01-15T09:14:15;12.73;;;9.57;;
11711;SDS011;5912;51.034;6.984;2024-01-15T09:16:40;13.40;;;9.40;;
11711;SDS011;5912;51.034;6.984;2024-01-15T09:19:06;15.47;;;10.90;;
11711;SDS011;5912;51.034;6.984;2024-01-15T09:21:31;13.27;;;9.97;;
11711;SDS011;5912;51.034;6.984;2024-01-15T09:23:56;14.13;;;10.13;;
11711;SDS011;5912;51.034;6.984;2024-01-15T09:26:22;12.63;;;9.23;;
11711;SDS011;5912;51.034;6.984;2024-01-15T09:28:47;14.43;;;8.83;;
11711;SDS011;5912;51.034;6.984;2024-01-15T09:31:12;11.97;;;8.80;;
11711;SDS011;5912;51.034;6.984;2024-01-15T09:33:38;13.23;;;9.63;;
11711;SDS011;5912;51.034;6.984;2024-01-15T09:36:03;14.47;;;9.33;;
11711;SDS011;5912;51.034;6.984;2024-01-15T09:38:29;10.27;;;7.97;;
11711;SDS011;5912;51.034;6.984;2024-01-15T09:40:56;11.07;;;7.63;;
11711;SDS011;5912;51.034;6.984;2024-01-15T09:43:22;14.30;;;8.77;;
11711;SDS011;5912;51.034;6.984;2024-01-15T09:45:47;12.77;;;8.00;;
11711;SDS011;5912;51.034;6.984;2024-01-15T09:48:18;12.40;;;8.60;;
11711;SDS011;5912;51.034;6.984;2024-01-15T09:50:43;8.43;;;6.83;;
11711;SDS011;5912;51.034;6.984;2024-01-15T09:53:09;11.83;;;7.13;;
11711;SDS011;5912;51.034;6.984;2024-01-15T09:55:35;8.63;;;6.57;;
11711;SDS011;5912;51.034;6.984;2024-01-15T09:58:02;9.33;;;6.93;;
11711;SDS011;5912;51.034;6.984;2024-01-15T10:00:28;8.57;;;6.43;;
11711;SDS011;5912;51.034;6.984;2024-01-15T10:02:57;7.43;;;5.27;;
11711;SDS011;5912;51.034;6.984;2024-01-15T10:05:25;6.90;;;5.10;;
11711;SDS011;5912;51.034;6.984;2024-01-15T10:07:51;7.97;;;5.40;;
11711;SDS011;5912;51.034;6.984;2024-01-15T10:10:19;6.53;;;4.70;;
11711;SDS011;5912;51.034;6.984;2024-01-15T10:12:46;5.73;;;5.10;;
11711;SDS011;5912;51.034;6.984;2024-01-15T10:15:12;6.13;;;5.03;;
11711;SDS011;5912;51.034;6.984;2024-01-15T10:17:38;8.07;;;5.13;;
11711;SDS011;5912;51.034;6.984;2024-01-15T10:20:08;4.93;;;4.43;;
11711;SDS011;5912;51.034;6.984;2024-01-15T10:22:35;5.73;;;4.60;;
11711;SDS011;5912;51.034;6.984;2024-01-15T10:25:02;6.13;;;4.93;;
11711;SDS011;5912;51.034;6.984;2024-01-15T10:27:29;5.63;;;5.13;;
11711;SDS011;5912;51.034;6.984;2024-01-15T10:29:54;5.63;;;4.53;;
11711;SDS011;5912;51.034;6.984;2024-01-15T10:32:19;5.33;;;4.60;;
11711;SDS011;5912;51.034;6.984;2024-01-15T10:34:45;5.20;;;4.70;;
11711;SDS011;5912;51.034;6.984;2024-01-15T10:37:10;6.33;;;4.73;;
11711;SDS011;5912;51.034;6.984;2024-01-15T10:39:35;6.00;;;4.83;;
11711;SDS011;5912;51.034;6.984;2024-01-15T10:42:01;5.40;;;4.40;;
11711;SDS011;5912;51.034;6.984;2024-01-15T10:44:28;5.43;;;4.53;;
11711;SDS011;5912;51.034;6.984;2024-01-15T10:46:54;5.03;;;4.03;;
11711;SDS011;5912;51.034;6.984;2024-01-15T10:49:21;4.90;;;3.40;;
11711;SDS011;5912;51.034;6.984;2024-01-15T10:51:46;4.07;;;3.63;;
11711;SDS011;5912;51.034;6.984;2024-01-15T10:54:13;5.37;;;3.43;;
11711;SDS011;5912;51.034;6.984;2024-01-15T10:56:39;4.33;;;3.60;;
11711;SDS011;5912;51.034;6.984;2024-01-15T10:59:04;5.47;;;3.60;;
11711;SDS011;5912;51.034;6.984;2024-01-15T11:01:30;3.53;;;2.93;;
11711;SDS011;5912;51.034;6.984;2024-01-15T11:03:55;4.17;;;3.20;;
11711;SDS011;5912;51.034;6.984;2024-01-15T11:06:23;4.50;;;3.00;;
11711;SDS011;5912;51.034;6.984;2024-01-15T11:08:49;3.10;;;2.43;;
11711;SDS011;5912;51.034;6.984;2024-01-15T11:11:16;2.77;;;2.47;;
11711;SDS011;5912;51.034;6.984;2024-01-15T11:13:42;2.97;;;2.47;;
11711;SDS011;5912;51.034;6.984;2024-01-15T11:16:11;2.23;;;2.00;;
11711;SDS011;5912;51.034;6.984;2024-01-15T11:18:39;2.43;;;2.13;;
11711;SDS011;5912;51.034;6.984;2024-01-15T11:28:57;2.00;;;1.77;;
11711;SDS011;5912;51.034;6.984;2024-01-15T11:34:08;1.77;;;1.40;;
11711;SDS011;5912;51.034;6.984;2024-01-15T11:39:51;1.40;;;1.30;;
11711;SDS011;5912;51.034;6.984;2024-01-15T11:42:10;2.47;;;1.73;;
11711;SDS011;5912;51.034;6.984;2024-01-15T11:44:37;1.33;;;1.20;;
11711;SDS011;5912;51.034;6.984;2024-01-15T11:47:03;1.80;;;1.40;;
11711;SDS011;5912;51.034;6.984;2024-01-15T11:52:17;3.23;;;1.40;;
11711;SDS011;5912;51.034;6.984;2024-01-15T11:55:06;2.60;;;1.33;;
11711;SDS011;5912;51.034;6.984;2024-01-15T11:57:45;2.50;;;1.50;;
11711;SDS011;5912;51.034;6.984;2024-01-15T12:00:13;1.83;;;1.50;;
11711;SDS011;5912;51.034;6.984;2024-01-15T12:02:40;1.83;;;1.57;;
11711;SDS011;5912;51.034;6.984;2024-01-15T12:05:09;1.70;;;1.60;;
11711;SDS011;5912;51.034;6.984;2024-01-15T12:07:37;2.70;;;2.13;;
11711;SDS011;5912;51.034;6.984;2024-01-15T12:10:05;2.20;;;2.00;;
11711;SDS011;5912;51.034;6.984;2024-01-15T12:15:09;3.60;;;2.90;;
11711;SDS011;5912;51.034;6.984;2024-01-15T12:17:34;2.93;;;2.60;;
11711;SDS011;5912;51.034;6.984;2024-01-15T12:20:01;3.23;;;2.80;;
11711;SDS011;5912;51.034;6.984;2024-01-15T12:22:27;4.10;;;3.00;;
11711;SDS011;5912;51.034;6.984;2024-01-15T12:24:53;3.97;;;3.30;;
11711;SDS011;5912;51.034;6.984;2024-01-15T12:27:19;3.50;;;2.93;;
11711;SDS011;5912;51.034;6.984;2024-01-15T12:29:45;5.43;;;3.30;;
11711;SDS011;5912;51.034;6.984;2024-01-15T12:32:11;3.93;;;3.10;;
11711;SDS011;5912;51.034;6.984;2024-01-15T12:34:37;4.27;;;2.70;;
11711;SDS011;5912;51.034;6.984;2024-01-15T12:37:03;3.30;;;3.00;;
11711;SDS011;5912;51.034;6.984;2024-01-15T12:39:28;6.30;;;3.47;;
11711;SDS011;5912;51.034;6.984;2024-01-15T12:41:54;3.60;;;2.90;;
11711;SDS011;5912;51.034;6.984;2024-01-15T12:44:19;9.20;;;2.97;;
11711;SDS011;5912;51.034;6.984;2024-01-15T12:46:45;3.73;;;2.77;;
11711;SDS011;5912;51.034;6.984;2024-01-15T12:49:10;4.50;;;3.00;;
11711;SDS011;5912;51.034;6.984;2024-01-15T12:51:35;4.97;;;3.20;;
11711;SDS011;5912;51.034;6.984;2024-01-15T12:54:01;3.07;;;2.77;;
11711;SDS011;5912;51.034;6.984;2024-01-15T12:56:26;6.17;;;2.90;;
11711;SDS011;5912;51.034;6.984;2024-01-15T12:58:51;5.83;;;3.10;;
11711;SDS011;5912;51.034;6.984;2024-01-15T13:01:17;8.03;;;3.07;;
11711;SDS011;5912;51.034;6.984;2024-01-15T13:03:42;6.40;;;3.50;;
11711;SDS011;5912;51.034;6.984;2024-01-15T13:06:07;5.07;;;2.90;;
11711;SDS011;5912;51.034;6.984;2024-01-15T13:08:33;5.90;;;2.90;;
11711;SDS011;5912;51.034;6.984;2024-01-15T13:10:58;3.73;;;3.03;;
11711;SDS011;5912;51.034;6.984;2024-01-15T13:13:23;4.90;;;2.43;;
11711;SDS011;5912;51.034;6.984;2024-01-15T13:15:49;4.27;;;2.43;;
11711;SDS011;5912;51.034;6.984;2024-01-15T13:18:14;3.03;;;2.60;;
11711;SDS011;5912;51.034;6.984;2024-01-15T13:20:39;3.40;;;2.30;;
11711;SDS011;5912;51.034;6.984;2024-01-15T13:23:04;3.37;;;2.23;;
11711;SDS011;5912;51.034;6.984;2024-01-15T13:25:30;5.10;;;2.27;;
11711;SDS011;5912;51.034;6.984;2024-01-15T13:27:56;6.13;;;2.57;;
11711;SDS011;5912;51.034;6.984;2024-01-15T13:30:21;4.43;;;2.00;;
11711;SDS011;5912;51.034;6.984;2024-01-15T13:32:47;2.73;;;2.00;;
11711;SDS011;5912;51.034;6.984;2024-01-15T13:35:12;4.93;;;2.03;;
11711;SDS011;5912;51.034;6.984;2024-01-15T13:37:38;4.47;;;2.00;;
11711;SDS011;5912;51.034;6.984;2024-01-15T13:40:06;6.60;;;2.37;;
11711;SDS011;5912;51.034;6.984;2024-01-15T13:42:34;2.87;;;1.90;;
11711;SDS011;5912;51.034;6.984;2024-01-15T13:44:59;6.07;;;1.70;;
11711;SDS011;5912;51.034;6.984;2024-01-15T13:47:25;3.17;;;2.23;;
11711;SDS011;5912;51.034;6.984;2024-01-15T13:49:50;2.77;;;1.80;;
11711;SDS011;5912;51.034;6.984;2024-01-15T13:52:15;3.83;;;1.63;;
11711;SDS011;5912;51.034;6.984;2024-01-15T13:54:41;3.23;;;1.70;;
11711;SDS011;5912;51.034;6.984;2024-01-15T13:57:07;2.67;;;1.50;;
11711;SDS011;5912;51.034;6.984;2024-01-15T13:59:32;2.70;;;1.40;;
11711;SDS011;5912;51.034;6.984;2024-01-15T14:01:58;3.43;;;1.53;;
11711;SDS011;5912;51.034;6.984;2024-01-15T14:04:23;1.67;;;1.40;;
11711;SDS011;5912;51.034;6.984;2024-01-15T14:06:48;3.07;;;1.50;;
11711;SDS011;5912;51.034;6.984;2024-01-15T14:09:14;2.00;;;1.63;;
11711;SDS011;5912;51.034;6.984;2024-01-15T14:11:39;2.63;;;1.80;;
11711;SDS011;5912;51.034;6.984;2024-01-15T14:14:05;2.13;;;1.70;;
11711;SDS011;5912;51.034;6.984;2024-01-15T14:16:32;3.07;;;2.00;;
11711;SDS011;5912;51.034;6.984;2024-01-15T14:18:58;4.03;;;2.70;;
11711;SDS011;5912;51.034;6.984;2024-01-15T14:21:23;2.40;;;1.93;;
11711;SDS011;5912;51.034;6.984;2024-01-15T14:23:48;2.73;;;2.17;;
11711;SDS011;5912;51.034;6.984;2024-01-15T14:26:14;1.97;;;1.70;;
11711;SDS011;5912;51.034;6.984;2024-01-15T14:28:39;1.93;;;1.57;;
11711;SDS011;5912;51.034;6.984;2024-01-15T14:31:05;4.90;;;1.70;;
11711;SDS011;5912;51.034;6.984;2024-01-15T14:33:30;1.97;;;1.70;;
11711;SDS011;5912;51.034;6.984;2024-01-15T14:35:56;4.57;;;2.10;;
11711;SDS011;5912;51.034;6.984;2024-01-15T14:38:22;2.57;;;1.90;;
11711;SDS011;5912;51.034;6.984;2024-01-15T14:40:48;4.63;;;2.03;;
11711;SDS011;5912;51.034;6.984;2024-01-15T14:43:14;2.00;;;1.80;;
11711;SDS011;5912;51.034;6.984;2024-01-15T14:45:39;1.57;;;1.47;;
11711;SDS011;5912;51.034;6.984;2024-01-15T14:48:05;3.63;;;2.20;;
11711;SDS011;5912;51.034;6.984;2024-01-15T14:50:31;1.97;;;1.60;;
11711;SDS011;5912;51.034;6.984;2024-01-15T14:52:56;2.37;;;1.60;;
11711;SDS011;5912;51.034;6.984;2024-01-15T14:55:21;2.20;;;1.70;;
11711;SDS011;5912;51.034;6.984;2024-01-15T14:57:48;1.73;;;1.30;;
11711;SDS011;5912;51.034;6.984;2024-01-15T15:00:14;4.03;;;3.00;;
11711;SDS011;5912;51.034;6.984;2024-01-15T15:02:41;3.63;;;2.23;;
11711;SDS011;5912;51.034;6.984;2024-01-15T15:05:09;1.63;;;1.53;;